x

Central Aleutians 230nm Sw Dutch Harbor (46072) Wave Buoy

6:50 - Sat 23rd Jul 2016 All times are UTC.

  • Sig Wave height 4.6ft
  • Swell Direction
  • Peak Period 8s
  • Average Period 7s
  • Wind
    11mph, 13mph gusts
  • Sea Temp 50°f
  • Aire Temp 50°f
  • Sea Pressure 1028.7mb

More Historic Weather Station data

Upgrade to MSW Pro to gain access to the past 30 days of data for over 8000 Wavebouys and Weather Stations around the globe.

Join Pro

Comparision Forecast

View Surf forecast
   
sáb 07/23 6:50 4.5ft 8s 7s 11 13 mph 1028.7mb 50f 50f
5:50 4.5ft 8s 7s 13 16 mph 1028.9mb 49f 50f
4:50 4.5ft 8s 7s 11 13 mph 1028.8mb 53f 49f
3:50 5ft 8s  -  9 11 mph 1028.7mb 52f 49f
2:50 5ft 9s 7s 11 13 mph 1028.3mb 54f 50f
1:50 5ft 8s 6s 13 18 mph 1028.6mb 54f 51f
12:50 5ft 8s 6s 11 16 mph 1028.8mb 54f 50f
11:50 5.5ft 8s 6s 11 13 mph 1028.8mb 54f 51f
10:50 5ft 8s 6s 9 11 mph 1029.2mb 54f 51f
9:50 5.5ft 8s 6s 9 11 mph 1029mb 54f 51f
8:50 5.5ft 8s 6s 9 11 mph 1028.8mb 54f 51f
7:50 5.5ft 8s 7s 9 11 mph 1028.4mb 54f 51f
6:50 5.5ft 8s 7s 9 11 mph 1028mb 54f 50f
5:50 5.5ft 8s 7s 9 11 mph 1028mb 54f 49f
4:50 6ft 8s 7s 9 13 mph 1027.8mb 54f 48f
3:50 6ft 8s 7s 9 11 mph 1027.5mb 54f 47f
2:50 5.5ft 8s 7s 11 16 mph 1027.1mb 54f 47f
1:50 6ft 9s 7s 11 13 mph 1027mb 55f 47f
12:50 5.5ft 8s 7s 11 16 mph 1026.8mb 55f 49f
vie 07/22 11:50 6ft 8s 7s 11 13 mph 1026.8mb 54f 48f
10:50 6ft 9s 6s 13 16 mph 1026.6mb 54f 49f
9:50 7ft 8s 7s 13 16 mph 1026.4mb 54f 49f
8:50 6ft 8s 6s 11 13 mph 1025.6mb 54f 48f
7:50 7ft 8s 7s 13 16 mph 1025.3mb 54f 47f
5:50 8.5ft 9s 7s 11 16 mph 1024.9mb 53f 47f
4:50 8ft 9s 7s 13 18 mph 1024.2mb 53f 47f
3:50 9ft 9s 8s 11 13 mph 1024.1mb 53f 49f
2:50 9ft 9s 8s 9 11 mph 1023.9mb 53f 50f
1:50 8ft 10s 7s 4 7 mph 1023.7mb 54f 50f
12:50 8.5ft 9s 7s 4 7 mph 1023.5mb 54f 50f
11:50 8.5ft 9s 7s 11
mph
1023.7mb 54f 50f
10:50 8.5ft 9s 7s 11 13 mph 1023.5mb 54f 51f
9:50 9.5ft 8s 7s 13 16 mph 1023.1mb 54f 51f
8:50 9.5ft 9s 7s 11 16 mph 1022.7mb 53f 51f
7:50 11ft 9s 7s 16 18 mph 1022.2mb 53f 52f
6:50 11ft 10s 7s 18 22 mph 1021.4mb 53f 52f
5:50 11.5ft 8s 7s 20 25 mph 1021.1mb 53f 52f
4:50 12ft 9s 7s 22 27 mph 1021mb 53f 53f
3:50 12ft 9s 7s 22 31 mph 1020.8mb 53f 53f
2:50 11ft 9s 7s 27 34 mph 1020.6mb 53f 53f
1:50 11.5ft 9s 7s 27 34 mph 1020.2mb 53f 54f
12:50 11.5ft 9s 7s 25 34 mph 1020.1mb 53f 54f
jue 07/21 11:50 12ft 9s 7s 27 31 mph 1020.1mb 53f 54f
10:50 11.5ft 9s 7s 27 34 mph 1020.4mb 53f 55f
9:50 11ft 8s 7s 29 36 mph 1020.1mb 52f 55f
8:50 10.5ft 8s 7s 29 36 mph 1019.6mb 52f 55f
7:50 11ft 7s 7s 29 36 mph 1019.4mb 52f 55f
6:50 11ft 8s 7s 27 34 mph 1019.1mb 51f 55f
5:50 10ft 8s 7s 29 36 mph 1019.3mb 52f 55f
4:50 9ft 8s 7s 29 36 mph 1019.2mb 53f 55f
3:50 8ft 8s 7s 22 27 mph 1020mb 54f 54f
2:50 7ft 8s 7s 22 27 mph 1020.8mb 53f 53f
1:50 7ft 9s 7s 22 29 mph 1021.5mb 52f 53f
12:50 7ft 9s 7s 20 22 mph 1022.3mb 53f 53f
11:50 7ft 10s 7s 18 22 mph 1023.4mb 53f 53f
10:50 6.5ft 8s 7s 13 18 mph 1023.8mb 53f 52f
9:50 8ft 10s 7s 11 13 mph 1024.4mb 53f 52f
8:50 7ft 10s 7s 11 13 mph 1025.2mb 53f 51f
7:50 8ft 10s 7s 7 9 mph 1025.5mb 52f 51f
6:50 8ft 10s 7s 2 4 mph 1025.7mb 52f 51f
5:50 8.5ft 9s 7s 7 9 mph 1026.1mb 52f 51f
4:50 8ft 10s 7s 2 4 mph 1025.6mb 51f 51f
3:50 8ft 10s 7s 7 11 mph 1026.1mb 52f 51f
2:50 8ft 8s 7s 9 13 mph 1025.8mb 52f 51f
1:50 9ft 10s 7s 11 13 mph 1025.5mb 53f 51f
12:50 9ft 10s 7s 11 16 mph 1025.2mb 53f 52f
mié 07/20 11:50 10ft 11s 8s 13 18 mph 1024.9mb 53f 52f
10:50 9.5ft 10s 7s 13 18 mph 1024.3mb 53f 52f
9:50 9.5ft 9s 7s 18 22 mph 1024.2mb 53f 52f
8:50 11ft 10s 8s 18 22 mph 1023.6mb 52f 53f
7:50 10.5ft 11s 7s 18 25 mph 1023.6mb 52f 53f
6:50 11.5ft 9s 8s 20 25 mph 1023.2mb 51f 53f
5:50 11.5ft 11s 8s 20 25 mph 1022.8mb 51f 53f
4:50 13ft 11s 8s 20 27 mph 1022.1mb 52f 53f
3:50 12ft 10s 8s 25 29 mph 1021.7mb 52f 53f
2:50 12ft 9s 7s 22 27 mph 1021.3mb 53f 53f
1:50 12ft 10s 8s 25 29 mph 1021.1mb 53f 54f
12:50 13ft 9s 8s 27 36 mph 1020.8mb 53f 54f
11:50 13ft 9s 7s 27 34 mph 1020.6mb 53f 54f
10:50 12ft 10s 7s 27 34 mph 1020.9mb 53f 54f
9:50 13ft 10s 7s 27 34 mph 1021mb 53f 54f
8:50 12ft 9s 7s 27 36 mph 1020.9mb 53f 54f
7:50 11.5ft 9s 7s 29 34 mph 1020.7mb 53f 54f
6:50 11ft 8s 7s 29 38 mph 1020.4mb 53f 55f
5:50 10.5ft 8s 6s 29 34 mph 1020.6mb 53f 54f
4:50 10ft 8s 6s 29 34 mph 1020.7mb 54f 55f
3:50 10.5ft 8s 7s 31 38 mph 1020.8mb 54f 54f
2:50 9.5ft 8s 6s 31 38 mph 1021.1mb 54f 55f
1:50 9ft 8s 6s 27 34 mph 1021.6mb 54f 54f
12:50 9ft 8s 6s 27 31 mph 1021.9mb 54f 54f
mar 07/19 11:50 8.5ft 8s 6s 27 31 mph 1022.2mb 54f 54f
10:50 8ft 8s 6s 22 29 mph 1022.8mb 54f 54f
9:50 8ft 8s 6s 25 31 mph 1022.9mb 53f 54f
8:50 7.5ft 7s 6s 25 29 mph 1022.9mb 53f 53f
7:50 7.5ft 7s 6s 25 29 mph 1022.9mb 52f 54f